sensor_id;sensor_type;location;lat;lon;timestamp;temperature;humidity
10149;DHT22;5115;50.920;6.376;2023-05-10T00:00:37;15.50;99.90
10149;DHT22;5115;50.920;6.376;2023-05-10T00:03:02;15.60;99.90
10149;DHT22;5115;50.920;6.376;2023-05-10T00:05:30;15.50;99.90
10149;DHT22;5115;50.920;6.376;2023-05-10T00:07:56;15.50;99.90
10149;DHT22;5115;50.920;6.376;2023-05-10T00:10:21;15.30;99.90
10149;DHT22;5115;50.920;6.376;2023-05-10T00:12:47;15.30;99.90
10149;DHT22;5115;50.920;6.376;2023-05-10T00:15:12;15.20;99.90
10149;DHT22;5115;50.920;6.376;2023-05-10T00:17:38;15.20;99.90
10149;DHT22;5115;50.920;6.376;2023-05-10T00:20:04;15.20;99.90
10149;DHT22;5115;50.920;6.376;2023-05-10T00:22:30;15.20;99.90
10149;DHT22;5115;50.920;6.376;2023-05-10T00:24:57;15.30;99.90
10149;DHT22;5115;50.920;6.376;2023-05-10T00:27:22;15.40;99.90
10149;DHT22;5115;50.920;6.376;2023-05-10T00:29:49;15.60;99.90
10149;DHT22;5115;50.920;6.376;2023-05-10T00:32:14;15.50;99.90
10149;DHT22;5115;50.920;6.376;2023-05-10T00:34:40;15.50;99.90
10149;DHT22;5115;50.920;6.376;2023-05-10T00:37:05;15.40;99.90
10149;DHT22;5115;50.920;6.376;2023-05-10T00:39:31;15.50;99.90
10149;DHT22;5115;50.920;6.376;2023-05-10T00:41:57;15.50;99.90
10149;DHT22;5115;50.920;6.376;2023-05-10T00:44:22;15.50;99.90
10149;DHT22;5115;50.920;6.376;2023-05-10T00:46:48;15.50;99.90
10149;DHT22;5115;50.920;6.376;2023-05-10T00:49:15;15.40;99.90
10149;DHT22;5115;50.920;6.376;2023-05-10T00:51:41;15.40;99.90
10149;DHT22;5115;50.920;6.376;2023-05-10T00:54:09;15.30;99.90
10149;DHT22;5115;50.920;6.376;2023-05-10T00:56:35;15.30;99.90
10149;DHT22;5115;50.920;6.376;2023-05-10T00:59:01;15.40;99.90
10149;DHT22;5115;50.920;6.376;2023-05-10T01:01:28;15.30;99.90
10149;DHT22;5115;50.920;6.376;2023-05-10T01:03:54;15.30;99.90
10149;DHT22;5115;50.920;6.376;2023-05-10T01:06:20;15.30;99.90
10149;DHT22;5115;50.920;6.376;2023-05-10T01:08:46;15.30;99.90
10149;DHT22;5115;50.920;6.376;2023-05-10T01:11:12;15.30;99.90
10149;DHT22;5115;50.920;6.376;2023-05-10T01:13:40;15.30;99.90
10149;DHT22;5115;50.920;6.376;2023-05-10T01:16:07;15.30;99.90
10149;DHT22;5115;50.920;6.376;2023-05-10T01:18:36;15.40;99.90
10149;DHT22;5115;50.920;6.376;2023-05-10T01:21:23;15.30;99.90
10149;DHT22;5115;50.920;6.376;2023-05-10T01:34:53;15.30;99.90
10149;DHT22;5115;50.920;6.376;2023-05-10T01:37:24;14.30;99.90
10149;DHT22;5115;50.920;6.376;2023-05-10T01:39:58;15.10;99.90
10149;DHT22;5115;50.920;6.376;2023-05-10T01:42:31;15.00;99.90
10149;DHT22;5115;50.920;6.376;2023-05-10T01:47:41;14.90;99.90
10149;DHT22;5115;50.920;6.376;2023-05-10T01:50:15;14.80;99.90
10149;DHT22;5115;50.920;6.376;2023-05-10T01:52:43;14.90;99.90
10149;DHT22;5115;50.920;6.376;2023-05-10T01:55:14;14.80;99.90
10149;DHT22;5115;50.920;6.376;2023-05-10T01:57:43;14.80;99.90
10149;DHT22;5115;50.920;6.376;2023-05-10T02:00:10;14.90;99.90
10149;DHT22;5115;50.920;6.376;2023-05-10T02:02:42;14.80;99.90
10149;DHT22;5115;50.920;6.376;2023-05-10T02:05:12;14.90;99.90
10149;DHT22;5115;50.920;6.376;2023-05-10T02:07:38;15.00;99.90
10149;DHT22;5115;50.920;6.376;2023-05-10T02:10:05;15.00;99.90
10149;DHT22;5115;50.920;6.376;2023-05-10T02:12:36;15.00;99.90
10149;DHT22;5115;50.920;6.376;2023-05-10T02:15:04;15.00;99.90
10149;DHT22;5115;50.920;6.376;2023-05-10T02:17:32;15.00;99.90
10149;DHT22;5115;50.920;6.376;2023-05-10T02:19:59;15.00;99.90
10149;DHT22;5115;50.920;6.376;2023-05-10T02:22:27;15.00;99.90
10149;DHT22;5115;50.920;6.376;2023-05-10T02:24:57;15.00;99.90
10149;DHT22;5115;50.920;6.376;2023-05-10T02:27:24;15.00;99.90
10149;DHT22;5115;50.920;6.376;2023-05-10T02:29:51;15.10;99.90
10149;DHT22;5115;50.920;6.376;2023-05-10T02:32:17;15.10;99.90
10149;DHT22;5115;50.920;6.376;2023-05-10T02:34:44;15.00;99.90
10149;DHT22;5115;50.920;6.376;2023-05-10T02:37:14;15.20;99.90
10149;DHT22;5115;50.920;6.376;2023-05-10T02:39:41;15.20;99.90
10149;DHT22;5115;50.920;6.376;2023-05-10T02:42:13;15.20;99.90
10149;DHT22;5115;50.920;6.376;2023-05-10T02:44:41;15.20;99.90
10149;DHT22;5115;50.920;6.376;2023-05-10T02:47:07;15.20;99.90
10149;DHT22;5115;50.920;6.376;2023-05-10T02:49:33;15.30;99.90
10149;DHT22;5115;50.920;6.376;2023-05-10T02:52:01;15.30;99.90
10149;DHT22;5115;50.920;6.376;2023-05-10T02:54:31;15.90;99.90
10149;DHT22;5115;50.920;6.376;2023-05-10T02:57:01;15.50;99.90
10149;DHT22;5115;50.920;6.376;2023-05-10T02:59:29;15.30;99.90
10149;DHT22;5115;50.920;6.376;2023-05-10T03:01:54;15.30;99.90
10149;DHT22;5115;50.920;6.376;2023-05-10T03:04:20;15.30;99.90
10149;DHT22;5115;50.920;6.376;2023-05-10T03:06:46;15.10;99.90
10149;DHT22;5115;50.920;6.376;2023-05-10T03:09:12;15.30;99.90
10149;DHT22;5115;50.920;6.376;2023-05-10T03:12:04;15.20;99.90
10149;DHT22;5115;50.920;6.376;2023-05-10T03:20:42;15.00;99.90
10149;DHT22;5115;50.920;6.376;2023-05-10T03:25:55;15.20;99.90
10149;DHT22;5115;50.920;6.376;2023-05-10T03:28:20;15.20;99.90
10149;DHT22;5115;50.920;6.376;2023-05-10T03:30:47;15.20;99.90
10149;DHT22;5115;50.920;6.376;2023-05-10T03:33:13;15.10;99.90
10149;DHT22;5115;50.920;6.376;2023-05-10T03:35:39;15.10;99.90
10149;DHT22;5115;50.920;6.376;2023-05-10T03:38:05;15.00;99.90
10149;DHT22;5115;50.920;6.376;2023-05-10T03:40:30;15.00;99.90
10149;DHT22;5115;50.920;6.376;2023-05-10T03:42:58;15.00;99.90
10149;DHT22;5115;50.920;6.376;2023-05-10T03:45:23;14.90;99.90
10149;DHT22;5115;50.920;6.376;2023-05-10T03:47:49;14.90;99.90
10149;DHT22;5115;50.920;6.376;2023-05-10T03:50:15;15.10;99.90
10149;DHT22;5115;50.920;6.376;2023-05-10T03:52:40;14.90;99.90
10149;DHT22;5115;50.920;6.376;2023-05-10T03:55:06;14.90;99.90
10149;DHT22;5115;50.920;6.376;2023-05-10T03:57:33;15.00;99.90
10149;DHT22;5115;50.920;6.376;2023-05-10T03:59:59;15.00;99.90
10149;DHT22;5115;50.920;6.376;2023-05-10T04:02:25;14.90;99.90
10149;DHT22;5115;50.920;6.376;2023-05-10T04:04:50;14.90;99.90
10149;DHT22;5115;50.920;6.376;2023-05-10T04:07:16;14.90;99.90
10149;DHT22;5115;50.920;6.376;2023-05-10T04:09:41;14.90;99.90
10149;DHT22;5115;50.920;6.376;2023-05-10T04:12:07;14.80;99.90
10149;DHT22;5115;50.920;6.376;2023-05-10T04:14:32;14.90;99.90
10149;DHT22;5115;50.920;6.376;2023-05-10T04:16:58;14.90;99.90
10149;DHT22;5115;50.920;6.376;2023-05-10T04:19:24;14.90;99.90
10149;DHT22;5115;50.920;6.376;2023-05-10T04:21:49;14.90;99.90
10149;DHT22;5115;50.920;6.376;2023-05-10T04:24:15;14.90;99.90
10149;DHT22;5115;50.920;6.376;2023-05-10T04:26:40;14.80;99.90
10149;DHT22;5115;50.920;6.376;2023-05-10T04:29:06;15.20;99.90
10149;DHT22;5115;50.920;6.376;2023-05-10T04:31:32;14.90;99.90
10149;DHT22;5115;50.920;6.376;2023-05-10T04:33:57;14.80;99.90
10149;DHT22;5115;50.920;6.376;2023-05-10T04:36:23;14.80;99.90
10149;DHT22;5115;50.920;6.376;2023-05-10T04:38:48;14.90;99.90
10149;DHT22;5115;50.920;6.376;2023-05-10T04:41:14;14.80;99.90
10149;DHT22;5115;50.920;6.376;2023-05-10T04:43:40;14.80;99.90
10149;DHT22;5115;50.920;6.376;2023-05-10T04:46:05;14.80;99.90
10149;DHT22;5115;50.920;6.376;2023-05-10T04:48:32;14.80;99.90
10149;DHT22;5115;50.920;6.376;2023-05-10T04:50:58;14.80;99.90
10149;DHT22;5115;50.920;6.376;2023-05-10T04:53:23;14.90;99.90
10149;DHT22;5115;50.920;6.376;2023-05-10T04:55:49;15.00;99.90
10149;DHT22;5115;50.920;6.376;2023-05-10T04:58:15;15.00;99.90
10149;DHT22;5115;50.920;6.376;2023-05-10T05:00:40;14.90;99.90
10149;DHT22;5115;50.920;6.376;2023-05-10T05:03:06;14.80;99.90
10149;DHT22;5115;50.920;6.376;2023-05-10T05:05:32;14.90;99.90
10149;DHT22;5115;50.920;6.376;2023-05-10T05:07:57;14.80;99.90
10149;DHT22;5115;50.920;6.376;2023-05-10T05:10:23;14.80;99.90
10149;DHT22;5115;50.920;6.376;2023-05-10T05:12:48;14.90;99.90
10149;DHT22;5115;50.920;6.376;2023-05-10T05:15:14;14.90;99.90
10149;DHT22;5115;50.920;6.376;2023-05-10T05:17:42;15.00;99.90
10149;DHT22;5115;50.920;6.376;2023-05-10T05:20:08;15.00;99.90
10149;DHT22;5115;50.920;6.376;2023-05-10T05:22:36;15.00;99.90
10149;DHT22;5115;50.920;6.376;2023-05-10T05:25:02;15.00;99.90
10149;DHT22;5115;50.920;6.376;2023-05-10T05:27:29;15.00;99.90
10149;DHT22;5115;50.920;6.376;2023-05-10T05:29:57;15.10;99.90
10149;DHT22;5115;50.920;6.376;2023-05-10T05:32:24;15.10;99.90
10149;DHT22;5115;50.920;6.376;2023-05-10T05:34:50;15.10;99.90
10149;DHT22;5115;50.920;6.376;2023-05-10T05:37:17;15.20;99.90
10149;DHT22;5115;50.920;6.376;2023-05-10T05:39:43;15.10;99.90
10149;DHT22;5115;50.920;6.376;2023-05-10T05:42:10;15.10;99.90
10149;DHT22;5115;50.920;6.376;2023-05-10T05:44:35;15.10;99.90
10149;DHT22;5115;50.920;6.376;2023-05-10T05:47:01;14.50;99.90
10149;DHT22;5115;50.920;6.376;2023-05-10T05:49:27;15.20;99.90
10149;DHT22;5115;50.920;6.376;2023-05-10T05:51:52;15.30;99.90
10149;DHT22;5115;50.920;6.376;2023-05-10T05:54:18;15.20;99.90
10149;DHT22;5115;50.920;6.376;2023-05-10T05:56:43;15.20;99.90
10149;DHT22;5115;50.920;6.376;2023-05-10T05:59:12;15.20;99.90
10149;DHT22;5115;50.920;6.376;2023-05-10T06:01:38;15.10;99.90
10149;DHT22;5115;50.920;6.376;2023-05-10T06:04:03;15.20;99.90
10149;DHT22;5115;50.920;6.376;2023-05-10T06:06:29;15.20;99.90
10149;DHT22;5115;50.920;6.376;2023-05-10T06:08:55;15.30;99.90
10149;DHT22;5115;50.920;6.376;2023-05-10T06:11:20;15.30;99.90
10149;DHT22;5115;50.920;6.376;2023-05-10T06:13:49;15.30;99.90
10149;DHT22;5115;50.920;6.376;2023-05-10T06:16:15;15.30;99.90
10149;DHT22;5115;50.920;6.376;2023-05-10T06:18:41;15.20;99.90
10149;DHT22;5115;50.920;6.376;2023-05-10T06:21:06;15.20;99.90
10149;DHT22;5115;50.920;6.376;2023-05-10T06:23:32;15.20;99.90
10149;DHT22;5115;50.920;6.376;2023-05-10T06:25:57;15.20;99.90
10149;DHT22;5115;50.920;6.376;2023-05-10T06:28:23;15.10;99.90
10149;DHT22;5115;50.920;6.376;2023-05-10T06:30:49;15.20;99.90
10149;DHT22;5115;50.920;6.376;2023-05-10T06:33:14;15.30;99.90
10149;DHT22;5115;50.920;6.376;2023-05-10T06:35:41;15.20;99.90
10149;DHT22;5115;50.920;6.376;2023-05-10T06:38:06;15.20;99.90
10149;DHT22;5115;50.920;6.376;2023-05-10T06:40:32;15.30;99.90
10149;DHT22;5115;50.920;6.376;2023-05-10T06:42:58;15.30;99.90
10149;DHT22;5115;50.920;6.376;2023-05-10T06:45:23;15.30;99.90
10149;DHT22;5115;50.920;6.376;2023-05-10T06:47:49;15.20;99.90
10149;DHT22;5115;50.920;6.376;2023-05-10T06:50:15;15.20;99.90
10149;DHT22;5115;50.920;6.376;2023-05-10T06:52:40;15.10;99.90
10149;DHT22;5115;50.920;6.376;2023-05-10T06:55:06;15.20;99.90
10149;DHT22;5115;50.920;6.376;2023-05-10T06:57:32;15.10;99.90
10149;DHT22;5115;50.920;6.376;2023-05-10T07:00:01;15.30;99.90
10149;DHT22;5115;50.920;6.376;2023-05-10T07:02:29;15.30;99.90
10149;DHT22;5115;50.920;6.376;2023-05-10T07:04:54;15.40;99.90
10149;DHT22;5115;50.920;6.376;2023-05-10T07:07:20;15.50;99.90
10149;DHT22;5115;50.920;6.376;2023-05-10T07:09:46;15.50;99.90
10149;DHT22;5115;50.920;6.376;2023-05-10T07:12:11;15.50;99.90
10149;DHT22;5115;50.920;6.376;2023-05-10T07:14:37;15.70;99.90
10149;DHT22;5115;50.920;6.376;2023-05-10T07:17:02;15.50;99.90
10149;DHT22;5115;50.920;6.376;2023-05-10T07:19:28;15.60;99.90
10149;DHT22;5115;50.920;6.376;2023-05-10T07:21:55;15.60;99.90
10149;DHT22;5115;50.920;6.376;2023-05-10T07:24:21;15.60;99.90
10149;DHT22;5115;50.920;6.376;2023-05-10T07:26:47;15.60;99.90
10149;DHT22;5115;50.920;6.376;2023-05-10T07:29:13;15.70;99.90
10149;DHT22;5115;50.920;6.376;2023-05-10T07:31:38;15.70;99.90
10149;DHT22;5115;50.920;6.376;2023-05-10T07:34:04;15.70;99.90
10149;DHT22;5115;50.920;6.376;2023-05-10T07:36:30;15.80;99.90
10149;DHT22;5115;50.920;6.376;2023-05-10T07:38:56;15.80;99.90
10149;DHT22;5115;50.920;6.376;2023-05-10T07:41:22;15.80;99.90
10149;DHT22;5115;50.920;6.376;2023-05-10T07:43:48;15.80;99.90
10149;DHT22;5115;50.920;6.376;2023-05-10T07:46:13;15.90;99.90
10149;DHT22;5115;50.920;6.376;2023-05-10T07:48:39;16.00;99.90
10149;DHT22;5115;50.920;6.376;2023-05-10T07:51:05;15.90;99.90
10149;DHT22;5115;50.920;6.376;2023-05-10T07:53:32;15.90;99.90
10149;DHT22;5115;50.920;6.376;2023-05-10T07:55:58;15.40;99.90
10149;DHT22;5115;50.920;6.376;2023-05-10T07:58:24;16.10;99.90
10149;DHT22;5115;50.920;6.376;2023-05-10T08:00:50;16.20;99.90
10149;DHT22;5115;50.920;6.376;2023-05-10T08:03:16;16.20;99.90
10149;DHT22;5115;50.920;6.376;2023-05-10T08:05:42;16.20;99.90
10149;DHT22;5115;50.920;6.376;2023-05-10T08:08:07;16.10;99.90
10149;DHT22;5115;50.920;6.376;2023-05-10T08:10:33;16.10;99.90
10149;DHT22;5115;50.920;6.376;2023-05-10T08:12:58;16.10;99.90
10149;DHT22;5115;50.920;6.376;2023-05-10T08:15:24;16.00;99.90
10149;DHT22;5115;50.920;6.376;2023-05-10T08:17:51;15.90;99.90
10149;DHT22;5115;50.920;6.376;2023-05-10T08:20:17;15.90;99.90
10149;DHT22;5115;50.920;6.376;2023-05-10T08:22:45;15.80;99.90
10149;DHT22;5115;50.920;6.376;2023-05-10T08:25:10;15.80;99.90
10149;DHT22;5115;50.920;6.376;2023-05-10T08:27:36;15.80;99.90
10149;DHT22;5115;50.920;6.376;2023-05-10T08:30:02;15.80;99.90
10149;DHT22;5115;50.920;6.376;2023-05-10T08:32:27;15.90;99.90
10149;DHT22;5115;50.920;6.376;2023-05-10T08:34:53;15.90;99.90
10149;DHT22;5115;50.920;6.376;2023-05-10T08:37:18;16.00;99.90
10149;DHT22;5115;50.920;6.376;2023-05-10T08:39:44;16.30;99.90
10149;DHT22;5115;50.920;6.376;2023-05-10T08:42:16;16.40;99.90
10149;DHT22;5115;50.920;6.376;2023-05-10T08:44:45;16.60;99.90
10149;DHT22;5115;50.920;6.376;2023-05-10T08:47:15;16.50;99.90
10149;DHT22;5115;50.920;6.376;2023-05-10T08:49:41;16.70;99.90
10149;DHT22;5115;50.920;6.376;2023-05-10T08:52:08;17.00;99.90
10149;DHT22;5115;50.920;6.376;2023-05-10T08:54:36;17.30;99.90
10149;DHT22;5115;50.920;6.376;2023-05-10T08:57:02;17.20;99.90
10149;DHT22;5115;50.920;6.376;2023-05-10T08:59:28;17.20;99.90
10149;DHT22;5115;50.920;6.376;2023-05-10T09:01:56;17.10;99.90
10149;DHT22;5115;50.920;6.376;2023-05-10T09:04:22;17.10;99.90
10149;DHT22;5115;50.920;6.376;2023-05-10T09:06:48;17.10;99.90
10149;DHT22;5115;50.920;6.376;2023-05-10T09:09:14;17.30;99.90
10149;DHT22;5115;50.920;6.376;2023-05-10T09:11:41;17.20;99.90
10149;DHT22;5115;50.920;6.376;2023-05-10T09:14:07;17.10;99.90
10149;DHT22;5115;50.920;6.376;2023-05-10T09:16:34;17.00;99.90
10149;DHT22;5115;50.920;6.376;2023-05-10T09:19:00;16.90;99.90
10149;DHT22;5115;50.920;6.376;2023-05-10T09:21:25;16.90;99.90
10149;DHT22;5115;50.920;6.376;2023-05-10T09:23:51;16.80;99.90
10149;DHT22;5115;50.920;6.376;2023-05-10T09:26:22;16.70;99.90
10149;DHT22;5115;50.920;6.376;2023-05-10T09:28:56;16.60;99.90
10149;DHT22;5115;50.920;6.376;2023-05-10T09:31:22;16.40;99.90
10149;DHT22;5115;50.920;6.376;2023-05-10T09:33:49;16.60;99.90
10149;DHT22;5115;50.920;6.376;2023-05-10T09:36:16;16.50;99.90
10149;DHT22;5115;50.920;6.376;2023-05-10T09:38:52;16.50;99.90
10149;DHT22;5115;50.920;6.376;2023-05-10T09:41:21;16.60;99.90
10149;DHT22;5115;50.920;6.376;2023-05-10T09:43:47;16.60;99.90
10149;DHT22;5115;50.920;6.376;2023-05-10T09:46:13;16.80;99.90
10149;DHT22;5115;50.920;6.376;2023-05-10T09:48:44;16.90;99.90
10149;DHT22;5115;50.920;6.376;2023-05-10T09:51:10;17.00;99.90
10149;DHT22;5115;50.920;6.376;2023-05-10T09:53:36;17.20;99.90
10149;DHT22;5115;50.920;6.376;2023-05-10T09:56:02;17.00;99.90
10149;DHT22;5115;50.920;6.376;2023-05-10T09:58:27;17.10;99.90
10149;DHT22;5115;50.920;6.376;2023-05-10T10:00:53;17.20;99.90
10149;DHT22;5115;50.920;6.376;2023-05-10T10:03:21;16.40;99.90
10149;DHT22;5115;50.920;6.376;2023-05-10T10:05:48;17.30;99.90
10149;DHT22;5115;50.920;6.376;2023-05-10T10:08:14;17.30;99.90
10149;DHT22;5115;50.920;6.376;2023-05-10T10:10:40;17.40;99.90
10149;DHT22;5115;50.920;6.376;2023-05-10T10:13:06;17.40;99.90
10149;DHT22;5115;50.920;6.376;2023-05-10T10:15:33;17.50;99.90
10149;DHT22;5115;50.920;6.376;2023-05-10T10:17:59;17.70;99.90
10149;DHT22;5115;50.920;6.376;2023-05-10T10:20:26;17.70;99.90
10149;DHT22;5115;50.920;6.376;2023-05-10T10:22:52;17.60;99.90
10149;DHT22;5115;50.920;6.376;2023-05-10T10:25:19;17.40;99.90
10149;DHT22;5115;50.920;6.376;2023-05-10T10:30:54;17.20;99.90
10149;DHT22;5115;50.920;6.376;2023-05-10T10:33:36;17.20;99.90
10149;DHT22;5115;50.920;6.376;2023-05-10T10:36:04;17.20;99.90
10149;DHT22;5115;50.920;6.376;2023-05-10T10:41:36;17.10;99.90
10149;DHT22;5115;50.920;6.376;2023-05-10T10:49:52;16.90;99.90
10149;DHT22;5115;50.920;6.376;2023-05-10T10:52:25;16.80;99.90
10149;DHT22;5115;50.920;6.376;2023-05-10T10:55:03;16.80;99.90
10149;DHT22;5115;50.920;6.376;2023-05-10T10:57:33;17.70;99.90
10149;DHT22;5115;50.920;6.376;2023-05-10T11:00:30;16.70;99.90
10149;DHT22;5115;50.920;6.376;2023-05-10T11:03:03;16.70;99.90
10149;DHT22;5115;50.920;6.376;2023-05-10T11:08:19;16.70;99.90
10149;DHT22;5115;50.920;6.376;2023-05-10T11:10:53;16.70;99.90
10149;DHT22;5115;50.920;6.376;2023-05-10T11:13:43;16.70;99.90
10149;DHT22;5115;50.920;6.376;2023-05-10T11:16:29;16.90;99.90
10149;DHT22;5115;50.920;6.376;2023-05-10T11:19:16;17.10;99.90
10149;DHT22;5115;50.920;6.376;2023-05-10T11:24:29;17.40;99.90
10149;DHT22;5115;50.920;6.376;2023-05-10T11:26:56;17.60;99.90
10149;DHT22;5115;50.920;6.376;2023-05-10T11:29:22;17.60;99.90
10149;DHT22;5115;50.920;6.376;2023-05-10T11:31:49;17.70;99.90
10149;DHT22;5115;50.920;6.376;2023-05-10T11:34:30;17.80;99.90
10149;DHT22;5115;50.920;6.376;2023-05-10T11:36:59;18.00;99.90
10149;DHT22;5115;50.920;6.376;2023-05-10T11:39:28;18.30;99.90
10149;DHT22;5115;50.920;6.376;2023-05-10T11:41:54;18.50;99.90
10149;DHT22;5115;50.920;6.376;2023-05-10T11:44:20;18.90;99.90
10149;DHT22;5115;50.920;6.376;2023-05-10T11:46:46;18.40;99.90
10149;DHT22;5115;50.920;6.376;2023-05-10T11:49:13;19.50;99.90
10149;DHT22;5115;50.920;6.376;2023-05-10T11:51:39;19.80;99.90
10149;DHT22;5115;50.920;6.376;2023-05-10T11:54:11;20.10;99.90
10149;DHT22;5115;50.920;6.376;2023-05-10T11:56:39;20.20;99.90
10149;DHT22;5115;50.920;6.376;2023-05-10T11:59:05;20.20;99.90
10149;DHT22;5115;50.920;6.376;2023-05-10T12:01:31;20.10;99.90
10149;DHT22;5115;50.920;6.376;2023-05-10T12:03:57;20.20;99.90
10149;DHT22;5115;50.920;6.376;2023-05-10T12:06:27;20.10;99.90
10149;DHT22;5115;50.920;6.376;2023-05-10T12:08:54;19.80;99.90
10149;DHT22;5115;50.920;6.376;2023-05-10T12:11:20;19.70;99.90
10149;DHT22;5115;50.920;6.376;2023-05-10T12:13:49;19.70;99.90
10149;DHT22;5115;50.920;6.376;2023-05-10T12:16:17;19.70;99.90
10149;DHT22;5115;50.920;6.376;2023-05-10T12:18:44;19.70;99.90
10149;DHT22;5115;50.920;6.376;2023-05-10T12:21:12;19.90;99.90
10149;DHT22;5115;50.920;6.376;2023-05-10T12:23:39;19.90;99.90
10149;DHT22;5115;50.920;6.376;2023-05-10T12:26:08;19.70;99.90
10149;DHT22;5115;50.920;6.376;2023-05-10T12:28:34;19.80;99.90
10149;DHT22;5115;50.920;6.376;2023-05-10T12:31:01;20.00;99.90
10149;DHT22;5115;50.920;6.376;2023-05-10T12:33:27;20.10;99.90
10149;DHT22;5115;50.920;6.376;2023-05-10T12:36:00;20.20;99.90
10149;DHT22;5115;50.920;6.376;2023-05-10T12:40:52;19.90;99.90
10149;DHT22;5115;50.920;6.376;2023-05-10T12:43:17;19.70;99.90
10149;DHT22;5115;50.920;6.376;2023-05-10T12:45:43;19.90;99.90
10149;DHT22;5115;50.920;6.376;2023-05-10T12:48:13;19.80;99.90
10149;DHT22;5115;50.920;6.376;2023-05-10T12:50:38;19.90;99.90
10149;DHT22;5115;50.920;6.376;2023-05-10T12:53:04;20.00;99.90
10149;DHT22;5115;50.920;6.376;2023-05-10T12:55:31;20.20;99.90
10149;DHT22;5115;50.920;6.376;2023-05-10T12:57:57;20.30;99.90
10149;DHT22;5115;50.920;6.376;2023-05-10T13:00:22;20.10;99.90
10149;DHT22;5115;50.920;6.376;2023-05-10T13:02:48;20.10;99.90
10149;DHT22;5115;50.920;6.376;2023-05-10T13:05:14;19.90;99.90
10149;DHT22;5115;50.920;6.376;2023-05-10T13:07:40;19.80;99.90
10149;DHT22;5115;50.920;6.376;2023-05-10T13:10:06;19.80;99.90
10149;DHT22;5115;50.920;6.376;2023-05-10T13:12:32;19.70;99.90
10149;DHT22;5115;50.920;6.376;2023-05-10T13:14:58;19.60;99.90
10149;DHT22;5115;50.920;6.376;2023-05-10T13:17:25;19.70;99.90
10149;DHT22;5115;50.920;6.376;2023-05-10T13:19:50;19.60;99.90
10149;DHT22;5115;50.920;6.376;2023-05-10T13:22:16;19.70;99.90
10149;DHT22;5115;50.920;6.376;2023-05-10T13:24:41;19.50;99.90
10149;DHT22;5115;50.920;6.376;2023-05-10T13:27:07;19.40;99.90
10149;DHT22;5115;50.920;6.376;2023-05-10T13:29:33;19.30;99.90
10149;DHT22;5115;50.920;6.376;2023-05-10T13:31:59;19.20;99.90
10149;DHT22;5115;50.920;6.376;2023-05-10T13:34:26;19.00;99.90
10149;DHT22;5115;50.920;6.376;2023-05-10T13:36:53;18.80;99.90
10149;DHT22;5115;50.920;6.376;2023-05-10T13:39:20;18.80;99.90
10149;DHT22;5115;50.920;6.376;2023-05-10T13:41:46;18.90;99.90
10149;DHT22;5115;50.920;6.376;2023-05-10T13:44:14;19.10;99.90
10149;DHT22;5115;50.920;6.376;2023-05-10T13:46:41;19.00;99.90
10149;DHT22;5115;50.920;6.376;2023-05-10T13:49:08;19.00;99.90
10149;DHT22;5115;50.920;6.376;2023-05-10T13:51:34;18.90;99.90
10149;DHT22;5115;50.920;6.376;2023-05-10T13:54:01;19.00;99.90
10149;DHT22;5115;50.920;6.376;2023-05-10T13:56:27;19.10;99.90
10149;DHT22;5115;50.920;6.376;2023-05-10T13:58:52;19.20;99.90
10149;DHT22;5115;50.920;6.376;2023-05-10T14:01:18;19.20;99.90
10149;DHT22;5115;50.920;6.376;2023-05-10T14:03:43;19.30;99.90
10149;DHT22;5115;50.920;6.376;2023-05-10T14:06:09;19.40;99.90
10149;DHT22;5115;50.920;6.376;2023-05-10T14:08:35;19.50;99.90
10149;DHT22;5115;50.920;6.376;2023-05-10T14:11:01;19.60;99.90
10149;DHT22;5115;50.920;6.376;2023-05-10T14:13:27;19.70;99.90
10149;DHT22;5115;50.920;6.376;2023-05-10T14:15:53;19.80;99.90
10149;DHT22;5115;50.920;6.376;2023-05-10T14:18:19;19.70;99.90
10149;DHT22;5115;50.920;6.376;2023-05-10T14:20:45;19.70;99.90
10149;DHT22;5115;50.920;6.376;2023-05-10T14:23:11;19.70;99.90
10149;DHT22;5115;50.920;6.376;2023-05-10T14:25:39;19.80;99.90
10149;DHT22;5115;50.920;6.376;2023-05-10T14:28:05;19.70;99.90
10149;DHT22;5115;50.920;6.376;2023-05-10T14:30:31;19.60;99.90
10149;DHT22;5115;50.920;6.376;2023-05-10T14:32:57;19.30;99.90
10149;DHT22;5115;50.920;6.376;2023-05-10T14:35:23;19.30;99.90
10149;DHT22;5115;50.920;6.376;2023-05-10T14:37:50;19.30;99.90
10149;DHT22;5115;50.920;6.376;2023-05-10T14:40:16;19.30;99.90
10149;DHT22;5115;50.920;6.376;2023-05-10T14:42:42;19.30;99.90
10149;DHT22;5115;50.920;6.376;2023-05-10T14:45:09;19.30;99.90
10149;DHT22;5115;50.920;6.376;2023-05-10T14:47:35;19.30;99.90
10149;DHT22;5115;50.920;6.376;2023-05-10T14:50:00;19.30;99.90
10149;DHT22;5115;50.920;6.376;2023-05-10T14:52:27;19.40;99.90
10149;DHT22;5115;50.920;6.376;2023-05-10T14:54:53;19.90;99.90
10149;DHT22;5115;50.920;6.376;2023-05-10T14:57:19;19.10;99.90
10149;DHT22;5115;50.920;6.376;2023-05-10T14:59:44;19.30;99.90
10149;DHT22;5115;50.920;6.376;2023-05-10T15:02:10;19.00;99.90
10149;DHT22;5115;50.920;6.376;2023-05-10T15:04:36;19.10;99.90
10149;DHT22;5115;50.920;6.376;2023-05-10T15:07:02;19.10;99.90
10149;DHT22;5115;50.920;6.376;2023-05-10T15:09:28;19.10;99.90
10149;DHT22;5115;50.920;6.376;2023-05-10T15:11:54;19.10;99.90
10149;DHT22;5115;50.920;6.376;2023-05-10T15:14:20;19.20;99.90
10149;DHT22;5115;50.920;6.376;2023-05-10T15:16:45;19.20;99.90
10149;DHT22;5115;50.920;6.376;2023-05-10T15:19:11;19.30;99.90
10149;DHT22;5115;50.920;6.376;2023-05-10T15:21:36;19.20;99.90
10149;DHT22;5115;50.920;6.376;2023-05-10T15:24:07;19.10;99.90
10149;DHT22;5115;50.920;6.376;2023-05-10T15:26:33;18.90;99.90
10149;DHT22;5115;50.920;6.376;2023-05-10T15:28:58;18.90;99.90
10149;DHT22;5115;50.920;6.376;2023-05-10T15:31:24;18.70;99.90
10149;DHT22;5115;50.920;6.376;2023-05-10T15:33:50;18.70;99.90
10149;DHT22;5115;50.920;6.376;2023-05-10T15:36:16;18.70;99.90
10149;DHT22;5115;50.920;6.376;2023-05-10T15:38:43;18.60;99.90
10149;DHT22;5115;50.920;6.376;2023-05-10T15:41:09;18.60;99.90
10149;DHT22;5115;50.920;6.376;2023-05-10T15:43:34;18.60;99.90
10149;DHT22;5115;50.920;6.376;2023-05-10T15:46:00;18.50;99.90
10149;DHT22;5115;50.920;6.376;2023-05-10T15:48:26;18.50;99.90
10149;DHT22;5115;50.920;6.376;2023-05-10T15:50:52;18.20;99.90
10149;DHT22;5115;50.920;6.376;2023-05-10T15:53:18;18.10;99.90
10149;DHT22;5115;50.920;6.376;2023-05-10T15:55:44;18.10;99.90
10149;DHT22;5115;50.920;6.376;2023-05-10T15:58:09;18.00;99.90
10149;DHT22;5115;50.920;6.376;2023-05-10T16:00:37;17.80;99.90
10149;DHT22;5115;50.920;6.376;2023-05-10T16:03:03;17.80;99.90
10149;DHT22;5115;50.920;6.376;2023-05-10T16:05:29;17.70;99.90
10149;DHT22;5115;50.920;6.376;2023-05-10T16:07:58;17.50;99.90
10149;DHT22;5115;50.920;6.376;2023-05-10T16:10:23;17.30;99.90
10149;DHT22;5115;50.920;6.376;2023-05-10T16:12:49;17.40;99.90
10149;DHT22;5115;50.920;6.376;2023-05-10T16:15:15;17.40;99.90
10149;DHT22;5115;50.920;6.376;2023-05-10T16:17:40;17.40;99.90
10149;DHT22;5115;50.920;6.376;2023-05-10T16:20:06;17.50;99.90
10149;DHT22;5115;50.920;6.376;2023-05-10T16:22:32;17.50;99.90
10149;DHT22;5115;50.920;6.376;2023-05-10T16:24:58;17.40;99.90